createdAt,value
2018-06-14T00:00:48.399Z,76.31
2018-06-14T00:01:51.248Z,76.12
2018-06-14T00:02:54.045Z,76.94
2018-06-14T00:03:57.826Z,76.64
2018-06-14T00:05:00.640Z,77.22
2018-06-14T00:06:03.501Z,77.08
2018-06-14T00:07:06.272Z,76.18
2018-06-14T00:08:09.085Z,76.06
2018-06-14T00:09:12.407Z,76.34
2018-06-14T00:10:15.633Z,75.66
2018-06-14T00:11:18.455Z,76.09
2018-06-14T00:12:22.430Z,76.50
2018-06-14T00:13:25.215Z,75.83
2018-06-14T00:14:28.037Z,76.25
2018-06-14T00:15:30.839Z,75.87
2018-06-14T00:16:34.024Z,76.01
2018-06-14T00:17:36.802Z,75.99
2018-06-14T00:18:39.612Z,75.82
2018-06-14T00:19:42.404Z,75.84
2018-06-14T00:20:45.194Z,75.94
2018-06-14T00:21:48.022Z,75.89
2018-06-14T00:22:50.894Z,75.98
2018-06-14T00:23:53.738Z,75.69
2018-06-14T00:24:56.537Z,75.31
2018-06-14T00:26:01.303Z,74.92
2018-06-14T00:27:04.415Z,75.74
2018-06-14T00:28:07.292Z,75.67
2018-06-14T00:29:15.938Z,75.82
2018-06-14T00:30:18.860Z,75.29
2018-06-14T00:31:21.877Z,75.67
2018-06-14T00:32:25.477Z,75.65
2018-06-14T00:33:28.492Z,75.58
2018-06-14T00:34:32.620Z,75.73
2018-06-14T00:35:36.062Z,75.63
2018-06-14T00:36:39.690Z,75.93
2018-06-14T00:37:42.506Z,75.24
2018-06-14T00:38:45.702Z,75.38
2018-06-14T00:39:48.967Z,74.95
2018-06-14T00:40:52.037Z,75.24
2018-06-14T00:41:55.211Z,74.92
2018-06-14T00:42:58.026Z,75.12
2018-06-14T00:44:01.497Z,74.90
2018-06-14T00:45:04.808Z,75.52
2018-06-14T00:46:07.696Z,75.47
2018-06-14T00:47:10.663Z,75.43
2018-06-14T00:48:14.259Z,75.63
2018-06-14T00:49:17.578Z,75.44
2018-06-14T00:50:20.346Z,75.11
2018-06-14T00:51:23.515Z,75.01
2018-06-14T00:52:26.372Z,75.18
2018-06-14T00:53:29.147Z,75.23
2018-06-14T00:54:32.522Z,75.58
2018-06-14T00:55:38.311Z,75.28
2018-06-14T00:56:41.975Z,75.36
2018-06-14T00:57:44.800Z,75.38
2018-06-14T00:58:47.629Z,75.99
2018-06-14T00:59:50.457Z,75.87
2018-06-14T01:00:53.869Z,75.95
2018-06-14T01:01:57.746Z,75.73
2018-06-14T01:03:00.725Z,75.63
2018-06-14T01:04:03.585Z,75.95
2018-06-14T01:05:06.585Z,76.27
2018-06-14T01:06:11.327Z,75.92
2018-06-14T01:07:15.076Z,76.03
2018-06-14T01:08:17.912Z,76.52
2018-06-14T01:09:20.693Z,76.58
2018-06-14T01:10:23.498Z,76.77
2018-06-14T01:11:27.241Z,76.53
2018-06-14T01:12:30.148Z,76.88
2018-06-14T01:13:34.298Z,76.88
2018-06-14T01:14:38.677Z,76.82
2018-06-14T01:15:41.471Z,76.62
2018-06-14T01:16:44.351Z,76.44
2018-06-14T01:17:47.561Z,76.51
2018-06-14T01:18:51.379Z,76.21
2018-06-14T01:19:55.402Z,76.19
2018-06-14T01:20:58.278Z,76.30
2018-06-14T01:22:03.081Z,76.40
2018-06-14T01:23:08.819Z,76.66
2018-06-14T01:24:14.457Z,76.84
2018-06-14T01:25:18.758Z,76.68
2018-06-14T01:26:23.426Z,76.74
2018-06-14T01:27:26.388Z,77.00
2018-06-14T01:28:29.181Z,77.11
2018-06-14T01:29:31.959Z,77.14
2018-06-14T01:30:35.902Z,77.41
2018-06-14T01:31:39.296Z,76.73
2018-06-14T01:32:42.826Z,77.28
2018-06-14T01:33:45.781Z,77.40
2018-06-14T01:34:48.583Z,77.19
2018-06-14T01:35:53.617Z,76.70
2018-06-14T01:36:58.306Z,76.76
2018-06-14T01:38:01.559Z,76.94
2018-06-14T01:39:07.519Z,77.71
2018-06-14T01:40:10.660Z,77.79
2018-06-14T01:41:13.501Z,77.79
2018-06-14T01:42:16.241Z,77.98
2018-06-14T01:43:19.051Z,78.12
2018-06-14T01:44:22.997Z,77.83
2018-06-14T01:45:26.356Z,77.55
2018-06-14T01:46:29.190Z,77.54
2018-06-14T01:47:31.940Z,77.70
2018-06-14T01:48:36.517Z,77.59
2018-06-14T01:49:40.863Z,77.76
2018-06-14T01:50:44.023Z,77.46
2018-06-14T01:51:47.206Z,77.50
2018-06-14T01:52:49.961Z,77.30
2018-06-14T01:53:53.132Z,78.01
2018-06-14T01:54:56.594Z,77.72
2018-06-14T01:56:00.173Z,78.12
2018-06-14T01:57:03.043Z,77.96
2018-06-14T01:58:05.801Z,78.23
2018-06-14T01:59:09.008Z,78.55
2018-06-14T02:00:12.244Z,78.55
2018-06-14T02:01:15.198Z,78.38
2018-06-14T02:02:18.025Z,78.13
2018-06-14T02:03:21.528Z,78.46
2018-06-14T02:04:26.132Z,78.27
2018-06-14T02:05:31.151Z,78.42
2018-06-14T02:06:34.180Z,78.37
2018-06-14T02:07:37.845Z,78.49
2018-06-14T02:08:41.455Z,78.54
2018-06-14T02:09:44.240Z,79.01
2018-06-14T02:10:48.472Z,78.76
2018-06-14T02:11:52.507Z,78.26
2018-06-14T02:12:55.287Z,78.24
2018-06-14T02:13:58.076Z,77.82
2018-06-14T02:15:00.980Z,77.94
2018-06-14T02:16:04.716Z,78.05
2018-06-14T02:17:08.327Z,78.45
2018-06-14T02:18:11.724Z,77.95
2018-06-14T02:19:14.516Z,78.01
2018-06-14T02:20:17.667Z,77.32
2018-06-14T02:21:20.856Z,77.73
2018-06-14T02:22:23.734Z,77.87
2018-06-14T02:23:26.997Z,77.87
2018-06-14T02:24:29.742Z,77.51
2018-06-14T02:25:35.587Z,77.93
2018-06-14T02:26:38.484Z,77.75
2018-06-14T02:27:43.573Z,77.82
2018-06-14T02:28:46.984Z,77.54
2018-06-14T02:29:50.201Z,77.27
2018-06-14T02:30:53.768Z,77.44
2018-06-14T02:31:56.563Z,77.79
2018-06-14T02:32:59.605Z,77.79
2018-06-14T02:34:02.492Z,77.54
2018-06-14T02:35:06.146Z,78.26
2018-06-14T02:36:09.371Z,78.16
2018-06-14T02:37:13.108Z,78.23
2018-06-14T02:38:19.726Z,78.27
2018-06-14T02:39:22.669Z,78.23
2018-06-14T02:40:26.608Z,77.74
2018-06-14T02:41:31.428Z,77.64
2018-06-14T02:42:35.993Z,77.48
2018-06-14T02:43:38.866Z,77.30
2018-06-14T02:44:41.680Z,77.62
2018-06-14T02:45:44.434Z,77.68
2018-06-14T02:46:48.384Z,77.27
2018-06-14T02:47:52.959Z,76.86
2018-06-14T02:48:56.310Z,77.05
2018-06-14T02:49:59.208Z,77.08
2018-06-14T02:51:02.023Z,76.83
2018-06-14T02:52:05.079Z,77.16
2018-06-14T02:53:08.866Z,77.59
2018-06-14T02:54:11.625Z,77.85
2018-06-14T02:55:14.747Z,77.63
2018-06-14T02:56:17.532Z,78.08
2018-06-14T02:57:20.491Z,78.04
2018-06-14T02:58:24.569Z,78.33
2018-06-14T02:59:27.389Z,77.96
2018-06-14T03:00:30.148Z,78.73
2018-06-14T03:01:33.728Z,79.34
2018-06-14T03:02:36.728Z,79.30
2018-06-14T03:03:39.507Z,79.32
2018-06-14T03:04:42.259Z,79.12
2018-06-14T03:05:47.996Z,78.57
2018-06-14T03:06:51.095Z,79.05
2018-06-14T03:07:54.859Z,79.08
2018-06-14T03:08:57.830Z,79.35
2018-06-14T03:10:00.756Z,79.66
2018-06-14T03:11:03.589Z,79.31
2018-06-14T03:12:07.402Z,79.33
2018-06-14T03:13:10.790Z,79.59
2018-06-14T03:14:14.009Z,78.92
2018-06-14T03:15:16.760Z,79.06
2018-06-14T03:16:19.587Z,78.77
2018-06-14T03:17:23.546Z,78.73
2018-06-14T03:18:26.496Z,79.06
2018-06-14T03:19:29.393Z,79.14
2018-06-14T03:20:32.441Z,79.24
2018-06-14T03:21:36.225Z,79.16
2018-06-14T03:22:40.076Z,79.50
2018-06-14T03:23:43.522Z,79.79
2018-06-14T03:24:46.326Z,79.64
2018-06-14T03:25:49.171Z,79.52
2018-06-14T03:26:52.824Z,79.00
2018-06-14T03:27:58.769Z,79.01
2018-06-14T03:29:02.180Z,78.88
2018-06-14T03:30:05.315Z,79.24
2018-06-14T03:31:12.115Z,79.27
2018-06-14T03:32:16.843Z,78.64
2018-06-14T03:33:20.287Z,78.43
2018-06-14T03:34:23.125Z,78.03
2018-06-14T03:35:25.891Z,78.05
2018-06-14T03:36:29.228Z,78.31
2018-06-14T03:37:33.244Z,78.28
2018-06-14T03:38:36.593Z,78.13
2018-06-14T03:39:39.877Z,78.42
2018-06-14T03:40:42.809Z,78.72
2018-06-14T03:41:46.278Z,78.86
2018-06-14T03:42:49.429Z,78.96
2018-06-14T03:43:52.328Z,78.92
2018-06-14T03:44:55.834Z,78.99
2018-06-14T03:45:58.755Z,79.13
2018-06-14T03:47:02.889Z,78.81
2018-06-14T03:48:05.911Z,78.50
2018-06-14T03:49:08.702Z,78.25
2018-06-14T03:50:11.492Z,78.00
2018-06-14T03:51:15.109Z,77.94
2018-06-14T03:52:18.517Z,78.38
2018-06-14T03:53:21.284Z,78.50
2018-06-14T03:54:24.699Z,78.40
2018-06-14T03:55:27.467Z,78.60
2018-06-14T03:56:31.041Z,78.70
2018-06-14T03:57:34.584Z,78.91
2018-06-14T03:58:38.063Z,79.04
2018-06-14T03:59:41.100Z,79.05
2018-06-14T04:00:43.915Z,78.82
2018-06-14T04:01:48.412Z,79.11
2018-06-14T04:02:51.992Z,79.43
2018-06-14T04:03:54.804Z,79.45
2018-06-14T04:04:57.646Z,79.08
2018-06-14T04:06:00.393Z,78.74
2018-06-14T04:07:03.481Z,78.37
2018-06-14T04:08:06.353Z,78.30
2018-06-14T04:09:12.099Z,77.68
2018-06-14T04:10:15.491Z,77.42
2018-06-14T04:11:18.230Z,77.68
2018-06-14T04:12:21.184Z,77.73
2018-06-14T04:13:24.139Z,77.72
2018-06-14T04:14:26.949Z,77.71
2018-06-14T04:15:30.785Z,77.87
2018-06-14T04:16:33.741Z,77.67
2018-06-14T04:17:37.272Z,77.33
2018-06-14T04:18:42.112Z,76.86
2018-06-14T04:19:45.810Z,76.57
2018-06-14T04:20:49.113Z,76.60
2018-06-14T04:21:52.500Z,76.39
2018-06-14T04:22:55.261Z,76.96
2018-06-14T04:23:58.477Z,76.89
2018-06-14T04:25:01.413Z,76.59
2018-06-14T04:26:04.271Z,76.99
2018-06-14T04:27:07.383Z,77.02
2018-06-14T04:28:11.447Z,77.12
2018-06-14T04:29:16.980Z,77.02
2018-06-14T04:30:20.936Z,76.67
2018-06-14T04:31:24.744Z,76.32
2018-06-14T04:32:27.483Z,76.48
2018-06-14T04:33:30.834Z,76.59
2018-06-14T04:34:33.778Z,76.31
2018-06-14T04:35:36.518Z,76.30
2018-06-14T04:36:47.619Z,76.27
2018-06-14T04:37:50.413Z,76.21
2018-06-14T04:38:53.309Z,76.31
2018-06-14T04:39:56.813Z,76.10
2018-06-14T04:40:59.789Z,76.09
2018-06-14T04:42:03.514Z,75.84
2018-06-14T04:43:06.295Z,75.52
2018-06-14T04:44:09.082Z,75.49
2018-06-14T04:45:11.842Z,75.72
2018-06-14T04:46:16.036Z,76.12
2018-06-14T04:47:18.868Z,76.26
2018-06-14T04:48:22.206Z,76.14
2018-06-14T04:49:25.054Z,76.40
2018-06-14T04:50:27.844Z,76.48
2018-06-14T04:51:42.074Z,76.05
2018-06-14T04:52:45.274Z,76.46
2018-06-14T04:53:48.403Z,75.39
2018-06-14T04:54:51.201Z,75.83
2018-06-14T04:55:53.993Z,75.84
2018-06-14T04:56:56.816Z,75.94
2018-06-14T04:58:00.031Z,75.83
2018-06-14T04:59:02.806Z,75.59
2018-06-14T05:00:09.361Z,75.45
2018-06-14T05:01:12.697Z,75.53
2018-06-14T05:02:17.499Z,75.60
2018-06-14T05:03:20.704Z,76.05
2018-06-14T05:04:24.319Z,75.77
2018-06-14T05:05:28.192Z,75.97
2018-06-14T05:06:31.660Z,75.39
2018-06-14T05:07:35.531Z,75.22
2018-06-14T05:08:38.708Z,75.17
2018-06-14T05:09:41.769Z,75.00
2018-06-14T05:10:47.576Z,75.16
2018-06-14T05:11:50.435Z,75.27
2018-06-14T05:12:53.260Z,75.55
2018-06-14T05:13:56.029Z,75.63
2018-06-14T05:14:59.971Z,75.31
2018-06-14T05:16:02.871Z,75.42
2018-06-14T05:17:06.149Z,74.90
2018-06-14T05:18:08.974Z,75.09
2018-06-14T05:19:11.753Z,74.97
2018-06-14T05:20:15.016Z,74.64
2018-06-14T05:21:18.525Z,75.01
2018-06-14T05:22:21.292Z,74.73
2018-06-14T05:23:24.473Z,74.46
2018-06-14T05:24:27.250Z,74.01
2018-06-14T05:25:40.482Z,74.21
2018-06-14T05:26:44.851Z,74.30
2018-06-14T05:27:51.178Z,74.03
2018-06-14T05:28:54.149Z,73.79
2018-06-14T05:29:59.989Z,73.53
2018-06-14T05:31:02.832Z,73.46
2018-06-14T05:32:05.620Z,74.06
2018-06-14T05:33:08.439Z,74.31
2018-06-14T05:34:12.313Z,73.75
2018-06-14T05:35:15.173Z,73.84
2018-06-14T05:36:18.607Z,74.28
2018-06-14T05:37:21.391Z,74.13
2018-06-14T05:38:24.211Z,73.59
2018-06-14T05:39:26.971Z,73.70
2018-06-14T05:40:29.728Z,73.84
2018-06-14T05:41:32.510Z,74.23
2018-06-14T05:42:35.795Z,74.12
2018-06-14T05:43:38.654Z,73.94
2018-06-14T05:44:43.204Z,73.11
2018-06-14T05:45:46.023Z,73.40
2018-06-14T05:46:48.852Z,73.08
2018-06-14T05:47:52.605Z,73.69
2018-06-14T05:50:05.716Z,73.84
2018-06-14T05:51:08.793Z,73.44
2018-06-14T05:52:12.170Z,73.29
2018-06-14T05:53:15.978Z,73.62
2018-06-14T05:54:19.094Z,73.05
2018-06-14T05:55:21.869Z,72.99
2018-06-14T05:56:24.666Z,73.14
2018-06-14T05:57:27.562Z,72.73
2018-06-14T05:58:30.502Z,73.07
2018-06-14T05:59:33.401Z,72.66
2018-06-14T06:00:36.993Z,72.27
2018-06-14T06:01:39.808Z,72.50
2018-06-14T06:02:42.611Z,72.79
2018-06-14T06:03:45.402Z,72.72
2018-06-14T06:04:48.278Z,72.32
2018-06-14T06:05:51.094Z,72.53
2018-06-14T06:06:54.289Z,72.51
2018-06-14T06:07:57.084Z,72.71
2018-06-14T06:09:00.790Z,72.36
2018-06-14T06:10:03.696Z,71.83
2018-06-14T06:11:06.506Z,71.81
2018-06-14T06:12:09.311Z,71.33
2018-06-14T06:13:12.560Z,71.44
2018-06-14T06:14:15.431Z,71.21
2018-06-14T06:15:18.329Z,71.59
2018-06-14T06:16:21.157Z,71.51
2018-06-14T06:17:23.905Z,70.80
2018-06-14T06:18:27.358Z,71.18
2018-06-14T06:19:30.774Z,70.85
2018-06-14T06:20:33.632Z,70.54
2018-06-14T06:21:36.403Z,70.18
2018-06-14T06:22:40.623Z,69.67
2018-06-14T06:23:45.169Z,69.54
2018-06-14T06:24:48.005Z,69.40
2018-06-14T06:25:51.164Z,70.07
2018-06-14T06:26:53.953Z,70.24
2018-06-14T06:27:56.789Z,69.88
2018-06-14T06:28:59.579Z,69.87
2018-06-14T06:30:02.629Z,69.50
2018-06-14T06:31:05.389Z,69.57
2018-06-14T06:32:08.467Z,69.05
2018-06-14T06:33:11.300Z,68.63
2018-06-14T06:34:14.190Z,68.82
2018-06-14T06:35:18.585Z,68.41
2018-06-14T06:36:21.602Z,69.07
2018-06-14T06:37:24.416Z,68.89
2018-06-14T06:38:27.707Z,68.66
2018-06-14T06:39:30.685Z,67.91
2018-06-14T06:40:33.512Z,68.17
2018-06-14T06:41:36.308Z,67.78
2018-06-14T06:42:39.268Z,68.63
2018-06-14T06:43:42.873Z,67.48
2018-06-14T06:44:46.123Z,68.21
2018-06-14T06:45:48.961Z,67.45
2018-06-14T06:46:51.890Z,67.62
2018-06-14T06:47:54.692Z,67.46
2018-06-14T06:48:58.428Z,66.70
2018-06-14T06:50:01.835Z,66.45
2018-06-14T06:51:04.995Z,65.92
2018-06-14T06:52:08.053Z,65.81
2018-06-14T06:53:11.044Z,65.97
2018-06-14T06:54:13.933Z,66.08
2018-06-14T06:55:17.502Z,66.05
2018-06-14T06:56:20.651Z,66.70
2018-06-14T06:57:24.233Z,66.73
2018-06-14T06:58:30.458Z,66.03
2018-06-14T06:59:33.228Z,64.69
2018-06-14T07:00:36.493Z,64.72
2018-06-14T07:01:39.328Z,65.76
2018-06-14T07:02:42.108Z,64.68
2018-06-14T07:03:46.385Z,63.32
2018-06-14T07:04:49.362Z,63.29
2018-06-14T07:05:52.154Z,62.89
2018-06-14T07:06:56.078Z,63.41
2018-06-14T07:08:00.381Z,62.49
2018-06-14T07:09:03.393Z,63.26
2018-06-14T07:10:07.339Z,60.93
2018-06-14T07:11:15.557Z,61.99
2018-06-14T07:12:19.944Z,61.75
2018-06-14T07:13:22.773Z,61.84
2018-06-14T07:14:25.619Z,60.50
2018-06-14T07:15:28.550Z,59.54
2018-06-14T07:16:31.390Z,57.77
2018-06-14T07:17:34.298Z,58.49
2018-06-14T07:18:37.095Z,57.40
2018-06-14T07:19:39.905Z,58.27
2018-06-14T07:20:42.693Z,57.01
2018-06-14T07:21:45.877Z,56.15
2018-06-14T07:22:48.751Z,55.61
2018-06-14T07:23:51.592Z,55.67
2018-06-14T07:24:54.429Z,54.89
2018-06-14T07:25:57.260Z,56.26
2018-06-14T07:27:00.275Z,55.91
2018-06-14T07:28:03.734Z,55.72
2018-06-14T07:29:06.594Z,55.21
2018-06-14T07:30:09.403Z,53.49
2018-06-14T07:31:12.214Z,53.67
2018-06-14T07:32:15.729Z,53.54
2018-06-14T07:33:18.623Z,53.14
2018-06-14T07:34:21.782Z,53.50
2018-06-14T07:35:28.443Z,53.37
2018-06-14T07:36:36.300Z,52.55
2018-06-14T07:37:40.350Z,51.54
2018-06-14T07:39:52.831Z,50.53
2018-06-14T07:40:56.648Z,49.98
2018-06-14T07:42:01.995Z,51.06
2018-06-14T07:43:04.849Z,51.67
2018-06-14T07:44:08.575Z,51.71
2018-06-14T07:45:11.377Z,52.21
2018-06-14T07:46:15.864Z,50.58
2018-06-14T07:54:25.950Z,50.56
2018-06-14T07:55:28.885Z,50.32
2018-06-14T07:56:31.738Z,49.92
2018-06-14T07:57:34.580Z,49.72
2018-06-14T07:58:37.461Z,49.49
2018-06-14T07:59:40.258Z,50.12
2018-06-14T08:00:43.976Z,50.01
2018-06-14T08:01:46.831Z,49.14
2018-06-14T08:02:49.820Z,48.84
2018-06-14T08:03:52.610Z,49.29
2018-06-14T08:04:55.631Z,49.09
2018-06-14T08:05:58.579Z,49.45
2018-06-14T08:07:01.724Z,48.35
2018-06-14T08:08:04.527Z,49.46
2018-06-14T08:09:07.610Z,49.03
2018-06-14T08:10:10.659Z,48.40
2018-06-14T08:11:13.457Z,48.62
2018-06-14T08:12:16.284Z,48.96
2018-06-14T08:13:19.113Z,47.56
2018-06-14T08:14:23.009Z,48.25
2018-06-14T08:15:26.373Z,47.13
2018-06-14T08:16:29.762Z,48.04
2018-06-14T08:17:33.600Z,46.94
2018-06-14T08:18:37.330Z,47.10
2018-06-14T08:19:40.148Z,46.83
2018-06-14T08:20:44.121Z,47.42
2018-06-14T08:21:47.312Z,47.52
2018-06-14T08:22:50.098Z,46.99
2018-06-14T08:23:54.182Z,46.16
2018-06-14T08:25:01.617Z,45.47
2018-06-14T08:26:05.359Z,45.47
2018-06-14T08:27:09.417Z,47.17
2018-06-14T08:28:14.985Z,47.16
2018-06-14T08:29:17.786Z,46.73
2018-06-14T08:30:21.892Z,46.35
2018-06-14T08:31:25.406Z,47.74
2018-06-14T08:32:29.199Z,47.67
2018-06-14T08:33:32.138Z,47.71
2018-06-14T08:34:35.088Z,47.13
2018-06-14T08:35:37.977Z,46.25
2018-06-14T08:36:41.109Z,47.82
2018-06-14T08:37:45.579Z,46.84
2018-06-14T08:38:48.389Z,46.38
2018-06-14T08:39:51.278Z,46.51
2018-06-14T08:40:54.067Z,47.00
2018-06-14T08:41:56.894Z,46.13
2018-06-14T08:43:00.325Z,46.81
2018-06-14T08:44:03.105Z,47.79
2018-06-14T08:45:06.019Z,47.50
2018-06-14T08:46:09.765Z,47.25
2018-06-14T08:47:12.538Z,47.92
2018-06-14T08:48:15.278Z,47.33
2018-06-14T08:49:18.545Z,46.26
2018-06-14T08:50:21.377Z,46.12
2018-06-14T08:51:24.216Z,45.83
2018-06-14T08:52:27.927Z,45.35
2018-06-14T08:53:30.729Z,45.17
2018-06-14T08:54:33.568Z,43.83
2018-06-14T08:55:36.621Z,44.36
2018-06-14T08:56:39.674Z,44.18
2018-06-14T08:57:42.508Z,45.79
2018-06-14T08:58:46.137Z,44.41
2018-06-14T08:59:49.028Z,46.69
2018-06-14T09:00:51.864Z,46.12
2018-06-14T09:01:54.988Z,45.82
2018-06-14T09:02:57.763Z,45.09
2018-06-14T09:04:00.670Z,45.64
2018-06-14T09:05:03.522Z,44.91
2018-06-14T09:06:07.952Z,44.97
2018-06-14T09:07:10.728Z,44.01
2018-06-14T09:08:15.379Z,44.39
2018-06-14T09:09:18.161Z,44.94
2018-06-14T09:10:20.910Z,44.01
2018-06-14T09:11:23.754Z,44.14
2018-06-14T09:12:26.549Z,43.27
2018-06-14T09:13:29.323Z,44.27
2018-06-14T09:14:32.426Z,44.63
2018-06-14T09:15:35.241Z,44.40
2018-06-14T09:16:38.526Z,45.57
2018-06-14T09:17:41.456Z,45.75
2018-06-14T09:18:45.347Z,44.60
2018-06-14T09:19:48.178Z,45.40
2018-06-14T09:20:52.323Z,44.64
2018-06-14T09:21:56.697Z,45.34
2018-06-14T09:23:00.857Z,44.02
2018-06-14T09:24:03.770Z,44.96
2018-06-14T09:25:07.469Z,45.15
2018-06-14T09:26:10.270Z,44.80
2018-06-14T09:27:13.489Z,45.87
2018-06-14T09:28:16.361Z,45.26
2018-06-14T09:29:19.485Z,44.64
2018-06-14T09:30:23.789Z,45.26
2018-06-14T09:31:26.850Z,45.10
2018-06-14T09:32:29.717Z,45.33
2018-06-14T09:33:32.962Z,44.31
2018-06-14T09:34:36.599Z,44.86
2018-06-14T09:35:39.382Z,44.72
2018-06-14T09:36:44.347Z,45.46
2018-06-14T09:37:47.376Z,46.51
2018-06-14T09:38:50.197Z,45.82
2018-06-14T09:39:53.471Z,45.24
2018-06-14T09:40:58.486Z,44.18
2018-06-14T09:42:01.305Z,44.28
2018-06-14T09:43:04.124Z,44.23
2018-06-14T09:44:07.616Z,46.08
2018-06-14T09:45:10.665Z,44.81
2018-06-14T09:46:14.347Z,44.82
2018-06-14T09:47:17.208Z,43.81
2018-06-14T09:48:20.058Z,44.11
2018-06-14T09:49:23.572Z,42.80
2018-06-14T09:50:27.499Z,43.05
2018-06-14T09:51:30.365Z,43.38
2018-06-14T09:52:33.676Z,44.87
2018-06-14T09:53:37.130Z,43.83
2018-06-14T09:54:40.997Z,42.87
2018-06-14T09:55:46.751Z,44.00
2018-06-14T09:56:49.737Z,42.43
2018-06-14T09:57:52.817Z,42.33
2018-06-14T09:58:56.305Z,42.96
2018-06-14T10:00:00.317Z,43.61
2018-06-14T10:01:03.259Z,42.68
2018-06-14T10:02:06.130Z,43.66
2018-06-14T10:03:09.000Z,43.50
2018-06-14T10:04:12.794Z,43.62
2018-06-14T10:05:17.224Z,44.31
2018-06-14T10:06:20.111Z,44.62
2018-06-14T10:07:23.022Z,44.64
2018-06-14T10:08:26.387Z,43.93
2018-06-14T10:09:29.192Z,42.25
2018-06-14T10:10:32.006Z,44.31
2018-06-14T10:11:36.432Z,45.17
2018-06-14T10:12:40.935Z,44.69
2018-06-14T10:13:44.405Z,45.80
2018-06-14T10:14:47.327Z,44.54
2018-06-14T10:15:55.285Z,44.49
2018-06-14T10:16:59.689Z,43.70
2018-06-14T10:18:02.801Z,42.62
2018-06-14T10:19:07.591Z,42.99
2018-06-14T10:20:12.356Z,41.98
2018-06-14T10:21:15.165Z,41.88
2018-06-14T10:22:19.628Z,42.86
2018-06-14T10:23:22.980Z,42.14
2018-06-14T10:24:27.212Z,42.00
2018-06-14T10:25:31.305Z,43.54
2018-06-14T10:26:35.473Z,42.87
2018-06-14T10:27:40.414Z,42.10
2018-06-14T10:28:44.417Z,42.28
2018-06-14T10:29:49.729Z,42.85
2018-06-14T10:30:55.924Z,43.77
2018-06-14T10:31:58.755Z,42.54
2018-06-14T10:33:01.596Z,42.42
2018-06-14T10:34:05.096Z,43.18
2018-06-14T10:35:10.664Z,41.86
2018-06-14T10:36:14.191Z,42.56
2018-06-14T10:37:18.266Z,42.93
2018-06-14T10:38:21.099Z,44.25
2018-06-14T10:39:24.052Z,42.64
2018-06-14T10:40:27.546Z,43.97
2018-06-14T10:41:32.004Z,42.65
2018-06-14T10:42:35.776Z,42.47
2018-06-14T10:43:39.309Z,42.12
2018-06-14T10:44:42.441Z,41.82
2018-06-14T10:45:51.699Z,42.66
2018-06-14T10:46:54.499Z,42.91
2018-06-14T10:47:57.272Z,41.95
2018-06-14T10:49:00.102Z,43.04
2018-06-14T10:50:03.337Z,42.69
2018-06-14T10:51:07.348Z,43.01
2018-06-14T10:52:10.829Z,44.37
2018-06-14T10:53:13.672Z,42.74
2018-06-14T10:54:16.479Z,42.60
2018-06-14T10:55:19.340Z,43.67
2018-06-14T10:56:23.559Z,41.86
2018-06-14T10:57:26.336Z,42.74
2018-06-14T10:58:29.561Z,42.21
2018-06-14T10:59:32.364Z,42.36
2018-06-14T11:00:35.356Z,42.17
2018-06-14T11:01:38.196Z,42.47
2018-06-14T11:02:41.282Z,41.91
2018-06-14T11:03:50.304Z,42.40
2018-06-14T11:04:53.093Z,41.72
2018-06-14T11:05:56.852Z,41.60
2018-06-14T11:06:59.724Z,43.08
2018-06-14T11:08:02.519Z,43.42
2018-06-14T11:09:06.815Z,43.27
2018-06-14T11:10:09.579Z,43.82
2018-06-14T11:11:15.964Z,43.54
2018-06-14T11:13:34.349Z,44.05
2018-06-14T11:14:38.356Z,43.01
2018-06-14T11:17:00.823Z,42.90
2018-06-14T11:18:05.372Z,43.46
2018-06-14T11:19:09.284Z,42.42
2018-06-14T11:20:17.488Z,42.70
2018-06-14T11:21:20.637Z,42.34
2018-06-14T11:22:24.542Z,43.83
2018-06-14T11:23:27.333Z,42.85
2018-06-14T11:24:31.924Z,44.00
2018-06-14T11:25:35.274Z,42.56
2018-06-14T11:26:38.372Z,43.20
2018-06-14T11:27:42.401Z,42.61
2018-06-14T11:28:45.185Z,43.13
2018-06-14T11:29:48.776Z,42.35
2018-06-14T11:30:52.197Z,43.47
2018-06-14T11:31:56.303Z,42.55
2018-06-14T11:32:59.279Z,42.52
2018-06-14T11:34:03.195Z,41.03
2018-06-14T11:35:06.546Z,41.61
2018-06-14T11:36:09.376Z,42.10
2018-06-14T11:37:15.906Z,42.19
2018-06-14T11:38:18.685Z,41.65
2018-06-14T11:39:22.569Z,42.90
2018-06-14T11:40:27.468Z,42.90
2018-06-14T11:41:30.274Z,42.84
2018-06-14T11:42:36.043Z,43.13
2018-06-14T11:43:40.354Z,42.35
2018-06-14T11:44:43.309Z,42.15
2018-06-14T11:45:46.080Z,42.62
2018-06-14T11:46:49.161Z,42.59
2018-06-14T11:47:51.958Z,42.62
2018-06-14T11:48:54.747Z,42.12
2018-06-14T11:49:57.547Z,42.45
2018-06-14T11:51:00.406Z,43.33
2018-06-14T11:52:03.289Z,42.50
2018-06-14T11:53:07.048Z,42.69
2018-06-14T11:54:12.032Z,42.52
2018-06-14T11:55:15.424Z,43.17
2018-06-14T11:56:18.300Z,42.64
2018-06-14T11:57:21.219Z,43.14
2018-06-14T11:58:24.042Z,42.52
2018-06-14T11:59:28.205Z,40.93
2018-06-14T12:00:33.423Z,42.15
2018-06-14T12:01:38.127Z,41.60
2018-06-14T12:02:41.810Z,42.86
2018-06-14T12:03:44.699Z,43.22
2018-06-14T12:04:51.661Z,42.54
2018-06-14T12:05:54.810Z,42.39
2018-06-14T12:07:01.303Z,41.59
2018-06-14T12:08:05.243Z,42.14
2018-06-14T12:09:08.883Z,41.08
2018-06-14T12:10:12.481Z,41.58
2018-06-14T12:11:16.086Z,41.29
2018-06-14T12:12:19.225Z,42.46
2018-06-14T12:13:22.897Z,42.23
2018-06-14T12:14:25.724Z,43.08
2018-06-14T12:15:28.600Z,42.85
2018-06-14T12:16:32.365Z,44.65
2018-06-14T12:17:35.179Z,44.40
2018-06-14T12:18:38.328Z,45.05
2018-06-14T12:19:42.003Z,44.58
2018-06-14T12:20:45.219Z,45.28
2018-06-14T12:21:50.128Z,44.45
2018-06-14T12:22:53.048Z,44.78
2018-06-14T12:23:55.985Z,45.30
2018-06-14T12:24:59.151Z,44.74
2018-06-14T12:26:01.963Z,45.66
2018-06-14T12:27:04.785Z,43.82
2018-06-14T12:28:07.663Z,44.13
2018-06-14T12:29:15.005Z,43.91
2018-06-14T12:30:17.785Z,44.08
2018-06-14T12:31:20.943Z,43.43
2018-06-14T12:32:23.787Z,43.68
2018-06-14T12:33:27.794Z,45.43
2018-06-14T12:34:31.217Z,45.71
2018-06-14T12:35:35.602Z,45.19
2018-06-14T12:36:39.190Z,44.43
2018-06-14T12:37:42.301Z,45.80
2018-06-14T12:38:45.302Z,45.29
2018-06-14T12:39:49.084Z,43.34
2018-06-14T12:40:52.669Z,43.77
2018-06-14T12:41:55.560Z,44.96
2018-06-14T12:42:59.103Z,44.26
2018-06-14T12:44:02.181Z,45.13
2018-06-14T12:45:06.682Z,43.74
2018-06-14T12:46:10.488Z,44.57
2018-06-14T12:47:13.294Z,44.25
2018-06-14T12:48:16.085Z,44.98
2018-06-14T12:49:18.858Z,45.01
2018-06-14T12:50:22.437Z,45.47
2018-06-14T12:51:25.869Z,44.70
2018-06-14T12:52:29.340Z,44.32
2018-06-14T12:53:32.748Z,44.58
2018-06-14T12:54:35.621Z,44.23
2018-06-14T12:55:38.674Z,44.56
2018-06-14T12:56:42.335Z,44.65
2018-06-14T12:57:46.116Z,44.58
2018-06-14T12:58:51.305Z,45.16
2018-06-14T12:59:54.112Z,45.18
2018-06-14T13:00:56.879Z,44.49
2018-06-14T13:02:01.697Z,44.82
2018-06-14T13:03:06.320Z,45.75
2018-06-14T13:04:09.213Z,44.82
2018-06-14T13:05:12.059Z,45.75
2018-06-14T13:06:14.907Z,45.51
2018-06-14T13:07:17.784Z,46.13
2018-06-14T13:08:22.128Z,47.10
2018-06-14T13:09:29.097Z,47.05
2018-06-14T13:10:32.582Z,46.57
2018-06-14T13:11:36.595Z,45.87
2018-06-14T13:12:40.736Z,46.89
2018-06-14T13:13:44.507Z,45.91
2018-06-14T13:14:50.174Z,47.09
2018-06-14T13:15:53.517Z,47.08
2018-06-14T13:16:58.518Z,46.03
2018-06-14T13:18:01.597Z,45.52
2018-06-14T13:19:06.878Z,45.94
2018-06-14T13:20:09.711Z,43.69
2018-06-14T13:21:14.200Z,44.54
2018-06-14T13:22:18.000Z,43.00
2018-06-14T13:23:21.020Z,44.01
2018-06-14T13:24:24.644Z,42.68
2018-06-14T13:25:28.673Z,42.07
2018-06-14T13:26:32.445Z,43.52
2018-06-14T13:27:35.808Z,44.56
2018-06-14T13:28:38.613Z,44.76
2018-06-14T13:29:41.566Z,44.11
2018-06-14T13:30:44.459Z,43.58
2018-06-14T13:31:48.218Z,44.25
2018-06-14T13:32:51.087Z,43.43
2018-06-14T13:33:54.176Z,44.15
2018-06-14T13:34:58.560Z,45.06
2018-06-14T13:36:01.460Z,44.65
2018-06-14T13:37:04.406Z,45.19
2018-06-14T13:38:07.267Z,45.24
2018-06-14T13:39:10.335Z,43.99
2018-06-14T13:40:15.313Z,44.48
2018-06-14T13:41:21.203Z,44.00
2018-06-14T13:42:24.616Z,45.17
2018-06-14T13:43:27.415Z,43.54
2018-06-14T13:44:30.227Z,45.00
2018-06-14T13:45:33.056Z,44.79
2018-06-14T13:46:39.915Z,43.28
2018-06-14T13:47:43.645Z,42.88
2018-06-14T13:48:47.991Z,43.08
2018-06-14T13:49:51.501Z,43.02